Time;durP1;ratioP1;P1;durP2;ratioP2;P2;SDS_P1;SDS_P2;PMS_P1;PMS_P2;Temp;Humidity;BMP_temperature;BMP_pressure;BME280_temperature;BME280_humidity;BME280_pressure;Samples;Min_cycle;Max_cycle;Signal;HPM_P1;HPM_P2
2022/02/19 00:00:59;;;;;;;10.60;1.75;;;6.50;90.80;;;;;;5057973;28;20095;-79
2022/02/19 00:03:27;;;;;;;4.72;1.02;;;6.50;89.00;;;;;;5058987;28;20126;-80
2022/02/19 00:05:53;;;;;;;9.00;1.48;;;6.50;87.80;;;;;;5056952;28;20056;-79
2022/02/19 00:08:21;;;;;;;2.45;1.13;;;6.40;88.80;;;;;;5058842;28;20041;-79
2022/02/19 00:10:47;;;;;;;6.20;1.58;;;6.30;88.90;;;;;;5056767;28;20137;-79
2022/02/19 00:13:14;;;;;;;6.63;0.90;;;6.30;89.60;;;;;;5057473;28;20049;-80
2022/02/19 00:15:41;;;;;;;4.28;1.42;;;6.30;89.50;;;;;;5056603;28;20056;-78
2022/02/19 00:18:11;;;;;;;6.30;1.40;;;6.20;90.00;;;;;;5058046;28;20131;-80
2022/02/19 00:20:39;;;;;;;8.68;1.42;;;6.20;88.40;;;;;;5056907;28;20415;-79
2022/02/19 00:23:06;;;;;;;7.85;1.60;;;6.20;87.70;;;;;;5056892;28;20072;-78
2022/02/19 00:25:33;;;;;;;5.72;1.35;;;6.10;90.00;;;;;;5056407;28;20139;-79
2022/02/19 00:28:00;;;;;;;7.97;2.17;;;6.10;89.90;;;;;;5056729;28;20049;-81
2022/02/19 00:30:28;;;;;;;5.60;1.13;;;6.00;90.30;;;;;;5059141;28;20055;-80
2022/02/19 00:32:54;;;;;;;7.78;1.48;;;5.80;91.10;;;;;;5060488;28;20049;-80
2022/02/19 00:35:22;;;;;;;9.02;1.40;;;5.80;91.30;;;;;;5057761;28;20124;-79
2022/02/19 00:37:49;;;;;;;3.72;1.05;;;5.90;91.10;;;;;;5059419;28;20098;-79
2022/02/19 00:40:15;;;;;;;4.53;1.23;;;5.90;91.20;;;;;;5059351;28;20069;-80
2022/02/19 00:42:42;;;;;;;10.02;1.27;;;5.80;91.90;;;;;;5058705;28;20052;-79
2022/02/19 00:45:09;;;;;;;7.05;1.27;;;5.70;92.70;;;;;;5057755;28;20098;-79
2022/02/19 00:47:36;;;;;;;8.30;1.50;;;5.70;92.40;;;;;;5058230;28;20462;-81
2022/02/19 00:50:03;;;;;;;9.20;1.55;;;5.70;92.40;;;;;;5056913;28;20072;-80
2022/02/19 00:52:29;;;;;;;7.85;1.30;;;5.70;92.70;;;;;;5056543;28;20132;-79
2022/02/19 00:54:56;;;;;;;8.30;1.63;;;5.70;93.00;;;;;;5056770;28;20052;-80
2022/02/19 00:57:23;;;;;;;10.95;2.08;;;5.70;93.20;;;;;;5056934;28;20567;-80
2022/02/19 00:59:49;;;;;;;6.20;1.88;;;5.60;94.30;;;;;;5058894;28;20051;-80
2022/02/19 01:02:16;;;;;;;9.63;2.00;;;5.70;94.20;;;;;;5058333;28;20131;-80
2022/02/19 01:04:44;;;;;;;10.77;1.95;;;5.70;94.80;;;;;;5057388;28;20052;-79
2022/02/19 01:07:12;;;;;;;11.93;1.92;;;5.60;96.40;;;;;;5058378;28;20048;-81
2022/02/19 01:09:38;;;;;;;7.38;1.77;;;5.50;97.00;;;;;;5060763;28;20081;-81
2022/02/19 01:12:06;;;;;;;11.48;2.10;;;5.50;97.30;;;;;;5056795;28;20088;-78
2022/02/19 01:14:33;;;;;;;13.50;1.63;;;5.60;97.30;;;;;;5057163;28;20571;-79
2022/02/19 01:17:00;;;;;;;7.38;1.88;;;5.80;96.80;;;;;;5057180;28;20048;-80
2022/02/19 01:19:27;;;;;;;9.70;1.92;;;5.90;97.10;;;;;;5056736;28;20049;-80
2022/02/19 01:21:54;;;;;;;7.93;1.85;;;6.10;96.80;;;;;;5056871;28;20045;-80
2022/02/19 01:24:22;;;;;;;8.20;1.90;;;6.20;96.60;;;;;;5057550;28;20072;-80
2022/02/19 01:26:48;;;;;;;16.45;2.35;;;6.30;95.80;;;;;;5059721;28;20048;-80
2022/02/19 01:29:15;;;;;;;10.90;1.75;;;6.40;96.30;;;;;;5058587;28;20132;-80
2022/02/19 01:31:42;;;;;;;12.88;2.03;;;6.40;98.00;;;;;;5057852;28;20084;-80
2022/02/19 01:34:09;;;;;;;10.90;2.28;;;6.20;99.90;;;;;;5058599;28;20049;-80
2022/02/19 01:36:37;;;;;;;11.00;2.05;;;6.00;99.90;;;;;;5057931;28;20084;-81
2022/02/19 01:39:04;;;;;;;12.30;2.42;;;5.70;99.90;;;;;;5057407;28;20075;-80
2022/02/19 01:41:31;;;;;;;11.68;1.80;;;5.40;99.90;;;;;;5057904;28;20081;-81
2022/02/19 01:44:09;;;;;;;10.70;2.17;;;5.10;99.90;;;;;;5058241;28;20116;-81
2022/02/19 01:46:36;;;;;;;8.60;1.83;;;4.90;99.90;;;;;;5058267;28;20079;-81
2022/02/19 01:49:05;;;;;;;16.65;2.25;;;4.90;99.90;;;;;;5058140;28;20127;-81
2022/02/19 01:51:36;;;;;;;7.05;1.70;;;5.10;99.90;;;;;;5057431;28;20132;-81
2022/02/19 01:54:05;;;;;;;11.43;1.48;;;5.20;99.90;;;;;;5055920;28;20049;-80
2022/02/19 01:56:33;;;;;;;22.83;1.63;;;5.30;99.90;;;;;;5056670;28;20128;-80
2022/02/19 01:59:00;;;;;;;8.50;1.40;;;5.40;99.90;;;;;;5056608;28;20136;-81
2022/02/19 02:01:27;;;;;;;9.05;2.03;;;5.50;99.90;;;;;;5056529;28;20052;-80
2022/02/19 02:03:54;;;;;;;9.35;1.55;;;5.40;99.90;;;;;;5058108;28;20077;-79
2022/02/19 02:06:24;;;;;;;8.68;1.60;;;5.40;99.90;;;;;;5056641;28;20476;-80
2022/02/19 02:08:51;;;;;;;6.72;1.63;;;5.40;99.90;;;;;;5057326;28;20048;-81
2022/02/19 02:11:18;;;;;;;8.90;1.48;;;5.30;99.90;;;;;;5056607;28;20427;-80
2022/02/19 02:13:45;;;;;;;14.30;2.45;;;5.30;99.90;;;;;;5056630;28;20155;-82
2022/02/19 02:16:12;;;;;;;12.52;1.30;;;5.40;99.90;;;;;;5056340;28;20555;-80
2022/02/19 02:18:41;;;;;;;5.68;1.45;;;5.40;99.90;;;;;;5056668;28;20132;-81
2022/02/19 02:21:08;;;;;;;8.82;1.65;;;5.50;99.90;;;;;;5057041;28;20044;-81
2022/02/19 02:23:34;;;;;;;8.02;1.85;;;5.50;99.90;;;;;;5059351;28;20132;-81
2022/02/19 02:26:03;;;;;;;7.28;1.40;;;5.60;99.90;;;;;;5056803;28;20105;-80
2022/02/19 02:28:34;;;;;;;11.45;1.38;;;5.50;99.90;;;;;;5056611;28;20384;-79
2022/02/19 02:31:04;;;;;;;4.55;1.00;;;5.20;99.90;;;;;;5056288;28;20137;-80
2022/02/19 02:33:30;;;;;;;5.75;1.15;;;5.00;99.90;;;;;;5055785;28;20147;-80
2022/02/19 02:35:57;;;;;;;6.10;1.15;;;4.80;99.90;;;;;;5056175;28;20136;-80
2022/02/19 02:38:24;;;;;;;6.75;1.48;;;4.70;99.90;;;;;;5055648;28;20456;-80
2022/02/19 02:40:51;;;;;;;5.82;1.33;;;4.60;99.90;;;;;;5055359;28;20049;-79
2022/02/19 02:43:17;;;;;;;7.47;1.25;;;4.60;99.90;;;;;;5057175;28;20143;-80
2022/02/19 02:45:44;;;;;;;5.43;1.00;;;4.60;99.90;;;;;;5055589;28;20049;-82
2022/02/19 02:48:21;;;;;;;6.07;1.27;;;4.50;99.90;;;;;;5055281;28;20041;-80
2022/02/19 02:50:48;;;;;;;6.95;1.02;;;4.60;99.90;;;;;;5055207;28;20045;-81
2022/02/19 02:53:36;;;;;;;5.07;1.15;;;4.60;99.90;;;;;;5056663;28;20056;-82
2022/02/19 02:56:03;;;;;;;9.15;1.52;;;4.60;99.90;;;;;;5057054;28;20081;-81
2022/02/19 02:58:30;;;;;;;5.55;1.35;;;4.60;99.90;;;;;;5055721;28;20049;-81
2022/02/19 03:00:57;;;;;;;7.32;0.95;;;4.70;99.90;;;;;;5054889;28;20071;-80
2022/02/19 03:03:23;;;;;;;11.50;1.98;;;4.60;99.90;;;;;;5055032;28;20053;-81
2022/02/19 03:05:50;;;;;;;8.80;1.58;;;4.60;99.90;;;;;;5055625;28;20105;-80
2022/02/19 03:08:17;;;;;;;6.03;1.73;;;4.50;99.90;;;;;;5054575;28;20486;-81
2022/02/19 03:10:44;;;;;;;13.23;1.77;;;4.40;99.90;;;;;;5055681;28;20114;-80
2022/02/19 03:13:11;;;;;;;6.88;1.77;;;4.20;99.90;;;;;;5058431;28;20072;-81
2022/02/19 03:15:37;;;;;;;7.60;2.00;;;4.00;99.90;;;;;;5058142;28;20056;-79
2022/02/19 03:18:05;;;;;;;7.90;1.10;;;3.90;99.90;;;;;;5058255;28;20478;-79
2022/02/19 03:20:33;;;;;;;8.55;1.73;;;3.80;99.90;;;;;;5057860;28;20420;-81
2022/02/19 03:23:00;;;;;;;13.32;2.15;;;3.60;99.90;;;;;;5058082;28;20128;-80
2022/02/19 03:25:27;;;;;;;9.05;1.52;;;3.50;99.90;;;;;;5058291;28;20136;-80
2022/02/19 03:27:54;;;;;;;9.93;1.75;;;3.40;99.90;;;;;;5058129;28;20127;-80
2022/02/19 03:30:21;;;;;;;6.72;1.30;;;3.30;99.90;;;;;;5058403;28;20049;-80
2022/02/19 03:32:49;;;;;;;7.55;1.30;;;3.20;99.90;;;;;;5059170;28;20123;-83
2022/02/19 03:35:16;;;;;;;7.78;1.05;;;3.20;99.90;;;;;;5061131;28;20056;-83
2022/02/19 03:37:43;;;;;;;10.20;1.70;;;3.20;99.90;;;;;;5062101;28;20128;-83
2022/02/19 03:40:10;;;;;;;10.20;1.50;;;3.20;99.90;;;;;;5062850;28;20045;-83
2022/02/19 03:42:39;;;;;;;5.90;0.80;;;3.20;99.90;;;;;;5061184;28;20064;-83
2022/02/19 03:45:09;;;;;;;5.38;1.00;;;3.20;99.90;;;;;;5059118;28;20128;-83
2022/02/19 03:47:36;;;;;;;8.65;1.33;;;3.30;99.90;;;;;;5058436;28;20081;-82
2022/02/19 03:50:05;;;;;;;6.30;0.95;;;3.40;99.90;;;;;;5059104;28;20136;-83
2022/02/19 03:52:35;;;;;;;9.05;1.00;;;3.50;99.90;;;;;;5059473;28;20508;-81
2022/02/19 03:55:03;;;;;;;7.78;1.08;;;3.40;99.90;;;;;;5059827;28;20114;-82
2022/02/19 03:57:30;;;;;;;2.28;0.75;;;3.40;99.90;;;;;;5058803;28;20058;-83
2022/02/19 03:59:57;;;;;;;4.13;0.95;;;3.50;99.90;;;;;;5058187;28;20605;-83
2022/02/19 04:02:24;;;;;;;6.85;1.58;;;3.60;99.90;;;;;;5058255;28;20045;-83
2022/02/19 04:04:51;;;;;;;4.78;1.10;;;3.70;99.90;;;;;;5058635;28;20139;-83
2022/02/19 04:07:17;;;;;;;2.75;0.90;;;3.60;99.90;;;;;;5059552;28;20084;-83
2022/02/19 04:09:44;;;;;;;4.85;1.15;;;3.60;99.90;;;;;;5059095;28;20159;-83
2022/02/19 04:12:11;;;;;;;4.03;1.02;;;3.60;99.90;;;;;;5058397;28;20053;-83
2022/02/19 04:14:37;;;;;;;6.88;1.38;;;3.80;99.90;;;;;;5059113;28;20087;-83
2022/02/19 04:17:04;;;;;;;4.50;1.00;;;3.80;99.90;;;;;;5057736;28;20144;-82
2022/02/19 04:19:31;;;;;;;6.53;1.00;;;3.90;99.90;;;;;;5058066;28;20072;-81
2022/02/19 04:21:59;;;;;;;6.13;1.05;;;4.00;99.90;;;;;;5058235;28;20135;-82
2022/02/19 04:24:25;;;;;;;3.00;0.82;;;3.90;99.90;;;;;;5058790;28;20457;-83
2022/02/19 04:26:52;;;;;;;5.80;1.48;;;4.20;99.90;;;;;;5058122;28;20322;-82
2022/02/19 04:29:19;;;;;;;2.95;1.00;;;4.40;99.90;;;;;;5059048;28;20105;-84
2022/02/19 04:31:53;;;;;;;3.00;1.08;;;4.60;99.90;;;;;;5058339;28;20480;-82
2022/02/19 04:34:21;;;;;;;7.72;1.40;;;4.40;99.90;;;;;;5058811;28;20470;-83
2022/02/19 04:36:48;;;;;;;4.60;0.70;;;4.10;99.90;;;;;;5058402;28;20530;-83
2022/02/19 04:39:17;;;;;;;8.20;1.45;;;3.80;99.90;;;;;;5060180;28;20466;-82
2022/02/19 04:41:44;;;;;;;5.72;0.70;;;3.50;99.90;;;;;;5058607;28;20132;-83
2022/02/19 04:44:11;;;;;;;5.18;0.70;;;3.40;99.90;;;;;;5059694;28;20045;-82
2022/02/19 04:46:38;;;;;;;3.75;0.50;;;3.30;99.90;;;;;;5059077;28;20053;-83
2022/02/19 04:49:05;;;;;;;3.28;0.80;;;3.10;99.90;;;;;;5059056;28;20049;-82
2022/02/19 04:51:32;;;;;;;4.85;0.60;;;3.00;99.90;;;;;;5058828;28;20076;-83
2022/02/19 04:53:58;;;;;;;4.32;0.80;;;2.90;99.90;;;;;;5059799;28;20103;-83
2022/02/19 04:56:27;;;;;;;5.22;0.95;;;3.00;99.90;;;;;;5063121;28;20091;-82
2022/02/19 04:58:54;;;;;;;6.05;1.00;;;3.00;99.90;;;;;;5058710;28;20072;-83
2022/02/19 05:01:21;;;;;;;4.57;0.90;;;3.00;99.90;;;;;;5058704;28;20408;-83
2022/02/19 05:03:47;;;;;;;5.47;0.80;;;3.10;99.90;;;;;;5059780;28;20049;-83
2022/02/19 05:06:14;;;;;;;6.32;1.25;;;3.10;99.90;;;;;;5059478;28;20126;-83
2022/02/19 05:08:41;;;;;;;4.75;1.20;;;3.20;99.90;;;;;;5057518;28;20041;-81
2022/02/19 05:11:08;;;;;;;9.75;1.20;;;3.30;99.90;;;;;;5056678;28;20053;-81
2022/02/19 05:13:35;;;;;;;8.00;1.30;;;3.40;99.90;;;;;;5057702;28;20073;-82
2022/02/19 05:16:02;;;;;;;8.40;1.10;;;3.60;99.90;;;;;;5056597;28;20102;-82
2022/02/19 05:18:29;;;;;;;5.25;0.85;;;3.60;99.90;;;;;;5055988;28;20059;-84
2022/02/19 05:20:55;;;;;;;5.30;1.13;;;3.60;99.90;;;;;;5055283;28;20117;-83
2022/02/19 05:23:22;;;;;;;4.60;1.23;;;3.60;99.90;;;;;;5056057;28;20045;-82
2022/02/19 05:25:49;;;;;;;5.13;1.30;;;3.60;99.90;;;;;;5056478;28;20055;-82
2022/02/19 05:28:16;;;;;;;3.80;1.25;;;3.70;99.90;;;;;;5058118;28;20076;-83
2022/02/19 05:30:43;;;;;;;3.60;0.95;;;3.80;99.90;;;;;;5056908;28;20389;-83
2022/02/19 05:33:10;;;;;;;10.63;1.27;;;3.80;99.90;;;;;;5055756;28;20055;-83
2022/02/19 05:35:37;;;;;;;9.27;1.60;;;3.80;99.90;;;;;;5055664;28;20437;-83
2022/02/19 05:38:04;;;;;;;8.40;1.00;;;3.80;99.90;;;;;;5056513;28;20053;-83
2022/02/19 05:40:31;;;;;;;5.85;1.52;;;3.80;99.90;;;;;;5056039;28;20049;-82
2022/02/19 05:42:58;;;;;;;4.90;1.35;;;3.80;99.90;;;;;;5056117;28;20594;-82
2022/02/19 05:45:25;;;;;;;3.17;0.65;;;3.70;99.90;;;;;;5057217;28;20048;-82
2022/02/19 05:47:51;;;;;;;3.88;1.27;;;3.70;99.90;;;;;;5056837;28;20132;-83
2022/02/19 05:50:18;;;;;;;3.70;0.85;;;3.60;99.90;;;;;;5057147;28;20075;-83
2022/02/19 05:52:47;;;;;;;7.35;1.33;;;3.60;99.90;;;;;;5057101;28;20045;-82
2022/02/19 05:55:14;;;;;;;8.38;1.20;;;3.60;99.90;;;;;;5058855;28;20397;-82
2022/02/19 05:57:42;;;;;;;2.38;1.00;;;3.50;99.90;;;;;;5057897;28;20122;-83
2022/02/19 06:00:10;;;;;;;5.75;1.13;;;3.50;99.90;;;;;;5059315;28;20156;-83
2022/02/19 06:02:37;;;;;;;7.72;0.88;;;3.50;99.90;;;;;;5059631;28;20135;-82
2022/02/19 06:05:05;;;;;;;8.20;1.83;;;3.30;99.90;;;;;;5060480;28;20453;-83
2022/02/19 06:07:32;;;;;;;7.88;1.17;;;3.20;99.90;;;;;;5059437;28;20052;-82
2022/02/19 06:09:59;;;;;;;5.90;1.40;;;3.30;99.90;;;;;;5063109;28;20053;-82
2022/02/19 06:12:25;;;;;;;5.68;1.10;;;3.20;99.90;;;;;;5059209;28;20436;-82
2022/02/19 06:14:52;;;;;;;3.38;0.60;;;3.30;99.90;;;;;;5058859;28;20105;-82
2022/02/19 06:17:19;;;;;;;3.85;0.60;;;3.20;99.90;;;;;;5057985;28;20113;-83
2022/02/19 06:19:46;;;;;;;8.25;1.15;;;3.30;99.90;;;;;;5059364;28;20472;-82
2022/02/19 06:22:13;;;;;;;3.97;0.80;;;3.50;99.90;;;;;;5059348;28;20462;-82
2022/02/19 06:24:40;;;;;;;8.38;0.85;;;3.50;99.90;;;;;;5060497;28;20048;-83
2022/02/19 06:27:06;;;;;;;4.05;0.77;;;3.60;99.90;;;;;;5059631;28;20072;-83
2022/02/19 06:29:33;;;;;;;4.90;0.77;;;3.60;99.90;;;;;;5060298;28;20132;-82
2022/02/19 06:32:00;;;;;;;5.88;1.08;;;3.60;99.90;;;;;;5059204;28;20535;-82
2022/02/19 06:34:27;;;;;;;3.95;1.10;;;3.80;99.90;;;;;;5058347;28;20091;-82
2022/02/19 06:36:53;;;;;;;6.50;1.02;;;3.90;99.90;;;;;;5056774;28;20560;-82
2022/02/19 06:39:20;;;;;;;3.90;0.85;;;4.10;99.90;;;;;;5056557;28;20068;-82
2022/02/19 06:41:47;;;;;;;3.90;1.10;;;4.20;99.90;;;;;;5057706;28;20080;-83
2022/02/19 06:44:14;;;;;;;2.65;0.95;;;4.30;99.90;;;;;;5058964;28;20461;-82
2022/02/19 06:46:41;;;;;;;7.82;1.35;;;4.30;99.90;;;;;;5062149;28;20440;-81
2022/02/19 06:49:08;;;;;;;2.83;0.90;;;4.30;99.90;;;;;;5060640;28;20084;-81
2022/02/19 06:51:35;;;;;;;5.18;1.38;;;4.30;99.90;;;;;;5061414;28;20512;-82
2022/02/19 06:54:02;;;;;;;3.70;1.25;;;4.20;99.90;;;;;;5061731;28;20052;-82
2022/02/19 06:56:30;;;;;;;4.35;0.90;;;4.30;99.90;;;;;;5059704;28;20112;-83
2022/02/19 06:59:00;;;;;;;2.80;0.68;;;4.40;99.90;;;;;;5059371;28;20076;-82
2022/02/19 07:01:29;;;;;;;8.18;2.03;;;4.50;99.90;;;;;;5061875;28;20140;-82
2022/02/19 07:03:58;;;;;;;7.22;2.20;;;4.50;99.90;;;;;;5061753;28;20526;-82
2022/02/19 07:06:25;;;;;;;2.75;0.95;;;4.50;99.90;;;;;;5062188;28;20095;-82
2022/02/19 07:08:52;;;;;;;7.70;2.30;;;4.50;99.90;;;;;;5060521;28;20073;-82
2022/02/19 07:11:19;;;;;;;6.80;1.40;;;4.50;99.90;;;;;;5064237;28;20081;-82
2022/02/19 07:13:46;;;;;;;4.50;1.20;;;4.30;99.90;;;;;;5065872;28;20092;-82
2022/02/19 07:16:12;;;;;;;5.32;1.80;;;4.20;99.90;;;;;;5064787;28;20080;-82
2022/02/19 07:18:39;;;;;;;6.20;1.30;;;4.10;99.90;;;;;;5060251;28;20057;-82
2022/02/19 07:21:06;;;;;;;3.05;1.30;;;4.10;99.90;;;;;;5052436;28;20141;-82
2022/02/19 07:23:33;;;;;;;4.13;1.30;;;4.10;99.90;;;;;;5057790;28;20050;-82
2022/02/19 07:26:00;;;;;;;5.00;1.17;;;4.00;99.90;;;;;;5053042;28;20037;-82
2022/02/19 07:28:27;;;;;;;2.17;0.82;;;4.00;99.90;;;;;;5052775;28;20075;-82
2022/02/19 07:30:53;;;;;;;3.72;1.10;;;4.00;99.90;;;;;;5052434;28;20523;-81
2022/02/19 07:33:20;;;;;;;3.88;0.88;;;4.00;99.90;;;;;;5048081;28;20045;-82
2022/02/19 07:35:50;;;;;;;4.95;1.10;;;4.20;99.90;;;;;;5041616;28;20049;-82
2022/02/19 07:38:19;;;;;;;7.05;1.20;;;4.20;99.90;;;;;;5041704;28;20054;-82
2022/02/19 07:40:45;;;;;;;5.88;0.85;;;4.30;99.90;;;;;;5038291;28;20121;-81
2022/02/19 07:43:12;;;;;;;4.38;1.10;;;4.30;99.90;;;;;;5037181;28;20046;-79
2022/02/19 07:45:39;;;;;;;5.95;1.63;;;4.40;99.90;;;;;;5037409;28;20136;-80
2022/02/19 07:48:06;;;;;;;5.55;1.35;;;4.40;99.90;;;;;;5037708;28;20057;-79
2022/02/19 07:58:49;;;;;;;3.10;0.63;;;4.60;99.90;;;;;;5042699;28;20096;-79
2022/02/19 08:01:18;;;;;;;2.20;0.70;;;4.60;99.90;;;;;;5044447;28;20054;-83
2022/02/19 08:03:47;;;;;;;4.22;0.88;;;4.70;99.90;;;;;;5039304;28;20571;-82
2022/02/19 08:06:14;;;;;;;2.30;0.88;;;4.80;99.90;;;;;;5050405;28;20040;-82
2022/02/19 08:08:42;;;;;;;4.93;1.48;;;4.90;99.90;;;;;;5061456;28;20113;-83
2022/02/19 08:11:09;;;;;;;6.35;1.67;;;5.00;99.90;;;;;;5059516;28;20049;-82
2022/02/19 08:13:36;;;;;;;5.32;0.90;;;5.10;99.90;;;;;;5060114;28;20491;-80
2022/02/19 08:16:03;;;;;;;2.75;0.70;;;5.10;99.90;;;;;;5058045;28;20056;-82
2022/02/19 08:18:31;;;;;;;5.95;1.40;;;5.20;99.90;;;;;;5060179;28;20085;-81
2022/02/19 08:20:58;;;;;;;3.92;0.75;;;5.30;99.90;;;;;;5059548;28;20059;-82
2022/02/19 08:23:25;;;;;;;4.93;1.10;;;5.40;99.90;;;;;;5060578;28;20052;-82
2022/02/19 08:25:54;;;;;;;3.25;1.50;;;5.80;99.90;;;;;;5061220;28;20048;-82
2022/02/19 08:28:21;;;;;;;5.53;1.38;;;6.60;99.90;;;;;;5058902;28;20099;-82
2022/02/19 08:30:50;;;;;;;2.20;1.13;;;7.20;98.00;;;;;;5059097;28;20049;-82
2022/02/19 08:33:17;;;;;;;6.47;1.30;;;7.60;95.80;;;;;;5059957;28;20055;-82
2022/02/19 08:35:44;;;;;;;4.80;1.58;;;8.30;93.10;;;;;;5062357;28;20053;-82
2022/02/19 08:38:11;;;;;;;3.65;1.42;;;8.10;92.50;;;;;;5062420;28;20503;-83
2022/02/19 08:40:43;;;;;;;5.20;1.40;;;8.00;92.40;;;;;;5065088;28;20072;-82
2022/02/19 08:43:10;;;;;;;4.97;1.10;;;8.60;90.60;;;;;;5060627;28;20132;-81
2022/02/19 08:45:38;;;;;;;1.67;0.80;;;9.00;88.10;;;;;;5058102;28;20123;-82
2022/02/19 08:48:06;;;;;;;2.78;0.95;;;9.20;85.10;;;;;;5058760;28;20053;-82
2022/02/19 08:50:35;;;;;;;4.03;0.85;;;8.80;83.90;;;;;;5057732;28;20045;-82
2022/02/19 08:53:08;;;;;;;4.07;1.33;;;8.50;83.80;;;;;;5057770;28;20076;-81
2022/02/19 08:55:35;;;;;;;2.88;1.20;;;8.70;84.90;;;;;;5057520;28;20547;-82
2022/02/19 08:58:02;;;;;;;4.47;1.35;;;8.50;83.50;;;;;;5058730;28;20080;-82
2022/02/19 09:00:29;;;;;;;3.95;0.90;;;8.80;85.00;;;;;;5057864;28;20045;-82
2022/02/19 09:02:56;;;;;;;5.57;1.02;;;9.50;83.60;;;;;;5057951;28;20050;-82
2022/02/19 09:05:23;;;;;;;3.85;0.77;;;9.70;80.90;;;;;;5058545;28;20128;-82
2022/02/19 09:07:50;;;;;;;3.95;0.88;;;9.80;78.30;;;;;;5057008;28;20041;-83
2022/02/19 09:10:17;;;;;;;4.32;1.13;;;9.60;76.80;;;;;;5057154;28;20068;-83
2022/02/19 09:12:49;;;;;;;3.65;0.80;;;9.10;77.20;;;;;;5058289;28;20045;-82
2022/02/19 09:15:18;;;;;;;4.10;1.00;;;9.00;81.40;;;;;;5057621;28;20049;-81
2022/02/19 09:17:45;;;;;;;4.18;1.10;;;9.20;79.70;;;;;;5058018;28;20102;-82
2022/02/19 09:20:13;;;;;;;2.28;1.27;;;9.70;80.50;;;;;;5058301;28;20084;-82
2022/02/19 09:22:40;;;;;;;13.32;1.50;;;10.10;78.90;;;;;;5058509;28;20108;-83
2022/02/19 09:25:09;;;;;;;4.28;0.82;;;9.60;76.20;;;;;;5057085;28;20136;-83
2022/02/19 09:27:36;;;;;;;4.63;1.20;;;9.50;74.40;;;;;;5056541;28;20059;-82
2022/02/19 09:30:05;;;;;;;4.50;1.00;;;9.80;74.60;;;;;;5057568;28;20095;-82
2022/02/19 09:32:32;;;;;;;2.85;0.88;;;9.90;72.90;;;;;;5058809;28;20049;-83
2022/02/19 09:34:59;;;;;;;1.60;0.93;;;9.50;71.80;;;;;;5058200;28;20081;-83
2022/02/19 09:37:28;;;;;;;9.38;1.10;;;9.60;71.20;;;;;;5057460;28;20045;-82
2022/02/19 09:40:00;;;;;;;2.53;0.90;;;9.50;70.50;;;;;;5058337;28;20045;-82
2022/02/19 09:42:27;;;;;;;11.60;1.58;;;10.00;70.70;;;;;;5059556;28;20057;-83
2022/02/19 09:44:56;;;;;;;3.75;0.68;;;10.60;70.00;;;;;;5058406;28;20113;-82
2022/02/19 09:47:30;;;;;;;1.55;0.73;;;10.80;65.20;;;;;;5059338;28;20049;-82
2022/02/19 09:49:58;;;;;;;4.45;1.00;;;11.30;65.50;;;;;;5060083;28;20053;-82
2022/02/19 09:52:25;;;;;;;4.40;1.23;;;11.90;66.00;;;;;;5061146;28;20056;-83
2022/02/19 09:54:57;;;;;;;2.35;1.23;;;12.80;63.70;;;;;;5062580;28;20473;-82
2022/02/19 09:57:25;;;;;;;3.30;1.10;;;13.50;60.10;;;;;;5057863;28;20053;-80
2022/02/19 09:59:52;;;;;;;5.20;1.45;;;13.40;59.40;;;;;;5057963;23;20179;-89
2022/02/19 10:02:30;;;;;;;4.72;1.80;;;12.60;61.40;;;;;;5051823;28;20063;-89
2022/02/19 10:05:15;;;;;;;6.10;1.77;;;12.30;62.80;;;;;;5052111;28;20098;-89
2022/02/19 10:07:43;;;;;;;3.30;1.10;;;11.60;64.20;;;;;;5052725;28;20405;-91
2022/02/19 10:10:25;;;;;;;6.05;1.55;;;11.40;64.20;;;;;;5051977;28;20080;-91
2022/02/19 10:12:53;;;;;;;1.45;0.85;;;11.60;65.50;;;;;;5052827;28;20056;-89
2022/02/19 10:15:20;;;;;;;3.55;1.13;;;12.80;62.70;;;;;;5052055;28;20053;-89
2022/02/19 10:17:49;;;;;;;2.42;1.05;;;13.20;61.50;;;;;;5053467;28;20048;-91
2022/02/19 10:20:17;;;;;;;10.70;1.65;;;13.40;59.30;;;;;;5061023;28;20075;-90
2022/02/19 10:22:44;;;;;;;5.18;1.00;;;13.40;59.10;;;;;;5060672;28;20072;-91
2022/02/19 10:25:14;;;;;;;5.22;1.10;;;13.80;59.10;;;;;;5059998;28;20079;-91
2022/02/19 10:27:54;;;;;;;4.78;0.93;;;12.90;58.00;;;;;;5059890;28;20124;-89
2022/02/19 10:30:26;;;;;;;2.53;0.80;;;13.10;59.10;;;;;;5059091;28;20413;-89
2022/02/19 10:33:00;;;;;;;4.07;0.70;;;12.50;58.00;;;;;;5061474;28;20463;-91
2022/02/19 10:35:32;;;;;;;3.30;1.00;;;11.40;61.20;;;;;;5059046;28;20080;-90
2022/02/19 10:38:10;;;;;;;4.07;1.13;;;11.20;63.70;;;;;;5062243;28;20059;-93
2022/02/19 10:40:42;;;;;;;2.17;1.13;;;11.90;62.10;;;;;;5058173;28;20060;-89
2022/02/19 10:43:12;;;;;;;3.23;1.13;;;12.20;60.70;;;;;;5059149;28;20049;-92
2022/02/19 10:46:01;;;;;;;3.55;1.50;;;12.60;59.50;;;;;;5059989;28;20287;-90
2022/02/19 10:48:30;;;;;;;4.03;1.25;;;12.80;58.80;;;;;;5065120;28;20076;-93
2022/02/19 10:51:12;;;;;;;4.88;1.05;;;12.10;58.60;;;;;;5067561;28;20049;-93
2022/02/19 10:53:43;;;;;;;6.80;1.08;;;11.80;59.00;;;;;;5059186;28;20048;-89
2022/02/19 10:56:14;;;;;;;2.13;0.80;;;11.40;61.50;;;;;;5059238;28;20557;-90
2022/02/19 10:59:01;;;;;;;3.97;1.00;;;11.40;61.40;;;;;;5059594;28;20084;-91
2022/02/19 11:01:38;;;;;;;5.10;1.13;;;11.10;60.60;;;;;;5059639;28;20076;-92
2022/02/19 11:04:07;;;;;;;7.57;1.50;;;11.10;61.90;;;;;;5058439;28;20092;-89
2022/02/19 11:06:35;;;;;;;4.07;1.60;;;11.00;63.00;;;;;;5060099;28;20056;-91
2022/02/19 11:09:05;;;;;;;7.03;3.28;;;11.90;61.40;;;;;;5059079;28;20147;-90
2022/02/19 11:11:36;;;;;;;3.63;1.00;;;12.30;60.50;;;;;;5058946;28;20071;-92
2022/02/19 11:14:08;;;;;;;5.05;1.05;;;12.70;58.60;;;;;;5060989;28;20136;-90
2022/02/19 11:16:35;;;;;;;4.35;1.30;;;13.20;58.70;;;;;;5058150;28;20056;-90
2022/02/19 11:19:04;;;;;;;7.15;2.08;;;13.40;57.20;;;;;;5059425;28;20056;-90
2022/02/19 11:21:37;;;;;;;7.10;1.00;;;14.30;55.90;;;;;;5059187;28;20076;-89
2022/02/19 11:24:06;;;;;;;2.35;0.70;;;14.30;53.30;;;;;;5057106;28;20063;-89
2022/02/19 11:26:34;;;;;;;4.00;1.45;;;13.20;53.80;;;;;;5060631;28;20106;-90
2022/02/19 11:29:12;;;;;;;5.82;1.38;;;12.00;55.90;;;;;;5059927;28;20131;-87
2022/02/19 11:31:40;;;;;;;7.65;1.75;;;10.80;57.00;;;;;;5053519;28;20061;-91
2022/02/19 11:34:08;;;;;;;5.63;1.42;;;11.00;59.00;;;;;;5054470;28;20055;-90
2022/02/19 11:36:35;;;;;;;6.00;1.00;;;11.40;58.90;;;;;;5054654;28;20497;-91
2022/02/19 11:39:04;;;;;;;4.55;0.90;;;11.30;57.70;;;;;;5054729;28;20049;-90
2022/02/19 11:41:49;;;;;;;5.45;0.95;;;11.10;58.30;;;;;;5059166;28;20127;-89
2022/02/19 11:44:18;;;;;;;7.88;1.75;;;10.10;59.20;;;;;;5059473;28;20075;-89
2022/02/19 11:46:47;;;;;;;3.38;1.52;;;9.30;61.60;;;;;;5057376;28;20140;-91
2022/02/19 11:49:17;;;;;;;6.80;1.10;;;9.20;60.90;;;;;;5057219;28;20055;-90
2022/02/19 11:51:44;;;;;;;4.40;1.38;;;8.80;63.00;;;;;;5054132;28;20052;-89
2022/02/19 11:54:34;;;;;;;2.63;1.05;;;9.00;62.70;;;;;;5058042;28;20095;-90
2022/02/19 11:57:18;;;;;;;6.03;1.10;;;9.10;62.60;;;;;;5056163;28;20045;-90
2022/02/19 11:59:49;;;;;;;4.80;0.90;;;9.20;63.40;;;;;;5059685;28;20068;-92
2022/02/19 12:02:19;;;;;;;1.88;1.35;;;9.30;63.50;;;;;;5061845;28;20112;-89
2022/02/19 12:05:18;;;;;;;2.75;1.20;;;9.60;63.50;;;;;;5061716;28;20049;-88
2022/02/19 12:07:59;;;;;;;6.80;2.63;;;10.00;62.10;;;;;;5055287;28;20049;-89
2022/02/19 12:10:26;;;;;;;3.63;1.27;;;10.30;61.60;;;;;;5055414;28;20041;-91
2022/02/19 12:13:07;;;;;;;4.93;1.38;;;10.20;60.20;;;;;;5055795;28;20072;-91
2022/02/19 12:15:37;;;;;;;6.40;0.93;;;9.20;59.90;;;;;;5055193;28;20482;-93
2022/02/19 12:18:05;;;;;;;6.40;1.20;;;9.00;60.90;;;;;;5054836;28;20052;-90
2022/02/19 12:20:35;;;;;;;4.20;1.30;;;8.90;61.70;;;;;;5054625;28;20083;-91
2022/02/19 12:23:06;;;;;;;6.57;1.00;;;9.70;61.80;;;;;;5054686;28;20404;-91
2022/02/19 12:25:55;;;;;;;3.22;0.93;;;10.20;59.10;;;;;;5055065;28;20055;-90
2022/02/19 12:28:22;;;;;;;3.08;0.75;;;10.60;58.50;;;;;;5054676;28;20048;-89
2022/02/19 12:31:20;;;;;;;5.45;1.45;;;10.90;57.70;;;;;;5052827;28;20057;-91
2022/02/19 12:33:50;;;;;;;6.65;2.10;;;11.20;59.30;;;;;;5051589;28;20413;-88
2022/02/19 12:36:17;;;;;;;2.88;1.10;;;11.00;57.20;;;;;;5048807;28;20045;-90
2022/02/19 12:38:46;;;;;;;2.60;0.85;;;10.80;58.90;;;;;;5052794;28;20041;-93
2022/02/19 12:41:13;;;;;;;5.43;1.33;;;11.10;59.10;;;;;;5037571;28;20080;-89
2022/02/19 12:44:04;;;;;;;3.88;1.00;;;11.60;58.10;;;;;;5054965;28;20049;-95
2022/02/19 12:46:35;;;;;;;3.08;0.93;;;11.80;56.90;;;;;;5053289;28;20139;-91
2022/02/19 12:49:02;;;;;;;3.80;0.65;;;11.60;57.00;;;;;;5055780;28;20473;-91
2022/02/19 12:51:28;;;;;;;3.90;1.00;;;11.40;57.50;;;;;;5053758;28;20135;-89
2022/02/19 12:53:55;;;;;;;2.15;1.15;;;11.20;57.50;;;;;;5053676;28;20041;-90
2022/02/19 12:56:26;;;;;;;1.70;0.80;;;10.80;58.00;;;;;;5054000;28;20051;-90
2022/02/19 12:58:53;;;;;;;2.45;0.77;;;10.90;59.20;;;;;;5053287;28;20037;-91
2022/02/19 13:01:26;;;;;;;2.47;1.10;;;11.00;58.80;;;;;;5053453;28;20048;-90
2022/02/19 13:03:53;;;;;;;5.47;1.10;;;11.20;59.10;;;;;;5050363;28;20079;-90
2022/02/19 13:06:23;;;;;;;6.25;0.98;;;11.40;58.10;;;;;;5050817;28;20083;-90
2022/02/19 13:08:58;;;;;;;2.83;1.00;;;11.50;57.40;;;;;;5053445;28;20091;-90